Time;durP1;ratioP1;P1;durP2;ratioP2;P2;SDS_P1;SDS_P2;PMS_P1;PMS_P2;Temp;Humidity;BMP_temperature;BMP_pressure;BME280_temperature;BME280_humidity;BME280_pressure;Samples;Min_cycle;Max_cycle;Signal;HPM_P1;HPM_P2
2022/11/21 06:45:28;;;;;;;21.50;19.10;;;;;;;;;;105956;1294;554091;-28
2022/11/21 06:48:05;;;;;;;21.90;18.60;;;;;;;;;;107799;1272;323161;-29
2022/11/21 06:50:38;;;;;;;20.80;18.30;;;;;;;;;;108158;1272;23881;-28
2022/11/21 06:53:10;;;;;;;21.10;18.80;;;;;;;;;;108089;1275;22972;-29
2022/11/21 06:55:42;;;;;;;21.40;18.60;;;;;;;;;;108003;1274;22564;-29
2022/11/21 06:58:18;;;;;;;21.60;18.00;;;;;;;;;;108582;1265;23711;-28
2022/11/21 07:00:51;;;;;;;20.70;18.10;;;;;;;;;;108599;1263;22614;-29
2022/11/21 07:03:24;;;;;;;21.60;19.30;;;;;;;;;;108557;1265;22565;-32
2022/11/21 07:06:00;;;;;;;21.40;19.10;;;;;;;;;;108566;1265;22553;-30
2022/11/21 07:08:35;;;;;;;21.60;18.70;;;;;;;;;;108631;1265;22510;-31
2022/11/21 07:11:09;;;;;;;20.80;18.60;;;;;;;;;;108592;1265;22541;-28
2022/11/21 07:13:47;;;;;;;21.80;19.20;;;;;;;;;;108591;1266;22509;-29
2022/11/21 07:16:19;;;;;;;23.90;19.40;;;;;;;;;;108566;1264;22561;-30
2022/11/21 07:18:51;;;;;;;21.70;19.30;;;;;;;;;;108545;1265;22597;-29
2022/11/21 07:21:23;;;;;;;21.90;19.10;;;;;;;;;;108528;1264;22543;-28
2022/11/21 07:23:55;;;;;;;21.80;19.20;;;;;;;;;;108515;1265;22563;-31
2022/11/21 07:26:27;;;;;;;21.00;18.70;;;;;;;;;;108543;1259;22543;-30
2022/11/21 07:29:06;;;;;;;21.10;18.70;;;;;;;;;;108550;1265;23144;-30
2022/11/21 07:31:39;;;;;;;21.30;19.00;;;;;;;;;;108579;1266;22557;-34
2022/11/21 07:34:11;;;;;;;22.30;19.40;;;;;;;;;;108544;1265;22628;-31
2022/11/21 07:36:44;;;;;;;20.80;18.60;;;;;;;;;;108385;1268;22497;-30
2022/11/21 07:39:19;;;;;;;21.60;18.90;;;;;;;;;;108424;1268;22513;-32
2022/11/21 07:41:51;;;;;;;20.30;17.90;;;;;;;;;;108417;1258;22555;-31
2022/11/21 07:44:23;;;;;;;21.40;18.50;;;;;;;;;;108435;1267;24185;-31
2022/11/21 07:46:57;;;;;;;23.90;19.10;;;;;;;;;;108438;1267;22592;-30
2022/11/21 07:49:31;;;;;;;21.20;18.80;;;;;;;;;;108468;1267;22529;-31
2022/11/21 07:52:03;;;;;;;21.60;19.10;;;;;;;;;;108498;1267;23853;-31
2022/11/21 07:54:36;;;;;;;21.50;19.00;;;;;;;;;;108478;1266;22620;-33
2022/11/21 07:57:08;;;;;;;21.20;18.90;;;;;;;;;;108401;1268;22561;-31
2022/11/21 07:59:41;;;;;;;22.00;18.90;;;;;;;;;;108442;1268;22514;-31
2022/11/21 08:02:21;;;;;;;21.40;18.20;;;;;;;;;;108444;1267;22553;-32
2022/11/21 08:04:54;;;;;;;21.10;18.10;;;;;;;;;;108404;1267;22693;-32
2022/11/21 08:07:28;;;;;;;20.40;18.20;;;;;;;;;;108275;1259;22495;-32
2022/11/21 08:09:59;;;;;;;;;;;;;;;;;;108367;1268;22622;-30
2022/11/21 08:12:33;;;;;;;21.00;18.70;;;;;;;;;;108432;1263;22547;-30
2022/11/21 08:15:12;;;;;;;22.20;18.50;;;;;;;;;;108434;1268;22589;-28
2022/11/21 08:17:45;;;;;;;21.30;18.60;;;;;;;;;;108292;1268;22613;-29
2022/11/21 08:20:19;;;;;;;;;;;;;;;;;;108388;1267;22548;-29
2022/11/21 08:22:52;;;;;;;20.40;18.00;;;;;;;;;;108376;1268;22514;-31
2022/11/21 08:25:24;;;;;;;22.10;18.50;;;;;;;;;;108329;1267;22760;-31
2022/11/21 08:27:59;;;;;;;22.60;19.10;;;;;;;;;;108371;1263;22786;-29
2022/11/21 08:30:34;;;;;;;22.90;18.80;;;;;;;;;;108383;1267;24325;-29
2022/11/21 08:33:13;;;;;;;21.80;19.00;;;;;;;;;;108380;1268;25414;-29
2022/11/21 08:35:45;;;;;;;23.60;19.00;;;;;;;;;;108394;1263;25270;-29
2022/11/21 08:38:17;;;;;;;21.80;19.50;;;;;;;;;;108379;1261;25201;-27
2022/11/21 08:42:01;;;;;;;21.70;19.30;;;;;;;;;;108392;1267;22551;-30
2022/11/21 08:43:42;;;;;;;22.50;19.40;;;;;;;;;;108422;1268;23901;-30
2022/11/21 08:46:15;;;;;;;23.40;19.60;;;;;;;;;;108382;1265;22684;-33
2022/11/21 08:48:51;;;;;;;21.50;18.50;;;;;;;;;;108524;1265;23794;-31
2022/11/21 08:51:23;;;;;;;20.80;18.50;;;;;;;;;;108473;1268;22550;-32
2022/11/21 08:53:55;;;;;;;23.40;19.10;;;;;;;;;;108442;1265;22557;-31
2022/11/21 08:56:29;;;;;;;21.80;18.60;;;;;;;;;;108471;1260;22802;-32
2022/11/21 08:59:02;;;;;;;23.30;19.00;;;;;;;;;;108462;1265;25210;-31
2022/11/21 09:01:34;;;;;;;21.00;18.80;;;;;;;;;;108475;1266;22931;-30
2022/11/21 09:04:10;;;;;;;23.90;17.20;;;;;;;;;;108434;1266;22647;-31
2022/11/21 09:06:42;;;;;;;20.90;18.30;;;;;;;;;;108470;1261;22605;-32
2022/11/21 09:09:15;;;;;;;20.70;17.50;;;;;;;;;;108562;1263;22509;-31
2022/11/21 09:11:47;;;;;;;20.60;17.80;;;;;;;;;;108551;1265;22638;-32
2022/11/21 09:20:11;;;;;;;18.70;16.40;;;;;;;;;;108453;1266;23992;-32
2022/11/21 09:22:43;;;;;;;23.90;17.10;;;;;;;;;;108454;1266;25422;-30
2022/11/21 09:25:22;;;;;;;20.40;17.50;;;;;;;;;;108374;1266;22545;-32
2022/11/21 09:27:54;;;;;;;19.70;17.40;;;;;;;;;;108416;1267;22624;-29
2022/11/21 09:30:26;;;;;;;19.60;16.70;;;;;;;;;;108536;1265;22542;-29
2022/11/21 09:33:07;;;;;;;20.30;17.20;;;;;;;;;;108574;1259;22585;-29
2022/11/21 09:35:44;;;;;;;18.20;16.10;;;;;;;;;;108603;1265;25411;-29
2022/11/21 09:38:16;;;;;;;19.20;16.50;;;;;;;;;;108499;1265;22579;-30
2022/11/21 09:40:50;;;;;;;20.00;16.60;;;;;;;;;;108506;1266;22537;-30
2022/11/21 09:43:46;;;;;;;18.00;15.80;;;;;;;;;;108395;1267;22546;-30
2022/11/21 09:46:23;;;;;;;19.10;15.80;;;;;;;;;;108474;1266;22556;-29
2022/11/21 09:48:58;;;;;;;18.30;15.90;;;;;;;;;;108451;1266;25226;-30
2022/11/21 09:51:32;;;;;;;17.60;15.80;;;;;;;;;;108545;1268;23788;-29
2022/11/21 09:54:11;;;;;;;18.10;15.50;;;;;;;;;;108543;1263;23992;-30
2022/11/21 09:56:45;;;;;;;16.00;14.30;;;;;;;;;;108550;1268;22563;-28
2022/11/21 09:59:32;;;;;;;16.60;14.60;;;;;;;;;;108446;1266;22570;-29
2022/11/21 10:02:14;;;;;;;17.30;15.50;;;;;;;;;;108436;1264;24296;-29
2022/11/21 10:04:47;;;;;;;17.50;15.20;;;;;;;;;;108415;1267;22509;-29
2022/11/21 10:07:27;;;;;;;16.20;13.90;;;;;;;;;;108375;1267;22704;-29
2022/11/21 10:10:21;;;;;;;16.60;14.60;;;;;;;;;;108429;1259;22553;-28
2022/11/21 10:13:10;;;;;;;15.60;13.90;;;;;;;;;;108458;1266;22549;-30
2022/11/21 10:15:57;;;;;;;16.70;13.80;;;;;;;;;;108479;1264;22550;-29
2022/11/21 10:19:10;;;;;;;16.10;13.40;;;;;;;;;;108446;1265;22522;-28
2022/11/21 10:22:10;;;;;;;15.90;13.90;;;;;;;;;;108408;1262;22557;-28
2022/11/21 10:24:57;;;;;;;15.00;13.40;;;;;;;;;;108483;1266;23795;-29
2022/11/21 10:27:36;;;;;;;15.80;13.50;;;;;;;;;;108483;1268;22788;-28
2022/11/21 10:30:19;;;;;;;15.30;13.00;;;;;;;;;;108505;1265;22557;-28
2022/11/21 10:32:55;;;;;;;14.60;12.60;;;;;;;;;;108629;1266;25920;-28
2022/11/21 10:35:38;;;;;;;15.20;13.20;;;;;;;;;;108606;1266;25395;-28
2022/11/21 10:38:23;;;;;;;15.20;13.30;;;;;;;;;;108603;1265;25271;-29
2022/11/21 10:41:03;;;;;;;14.40;12.50;;;;;;;;;;108515;1268;22555;-28
2022/11/21 10:46:33;;;;;;;15.70;13.10;;;;;;;;;;108502;1268;22523;-29
2022/11/21 10:49:10;;;;;;;14.30;12.50;;;;;;;;;;108684;1259;22636;-30
2022/11/21 10:51:47;;;;;;;15.30;12.90;;;;;;;;;;108862;1261;22535;-29
2022/11/21 10:54:35;;;;;;;15.00;13.30;;;;;;;;;;108673;1256;22547;-29
2022/11/21 10:57:15;;;;;;;14.30;12.70;;;;;;;;;;108682;1262;22537;-29
2022/11/21 11:00:01;;;;;;;14.90;13.10;;;;;;;;;;108714;1256;25418;-29
2022/11/21 11:02:36;;;;;;;14.20;12.20;;;;;;;;;;108677;1264;22698;-30
2022/11/21 11:05:28;;;;;;;14.50;12.40;;;;;;;;;;108679;1263;22493;-29
2022/11/21 11:08:11;;;;;;;15.00;11.90;;;;;;;;;;108613;1264;22579;-31
2022/11/21 11:10:47;;;;;;;13.80;11.90;;;;;;;;;;108668;1263;23723;-31
2022/11/21 11:13:33;;;;;;;13.90;12.30;;;;;;;;;;108700;1264;22845;-31
2022/11/21 11:16:15;;;;;;;14.40;12.00;;;;;;;;;;108682;1256;22535;-31
2022/11/21 11:18:56;;;;;;;14.10;12.10;;;;;;;;;;108658;1263;22624;-31
2022/11/21 11:21:30;;;;;;;14.30;12.80;;;;;;;;;;108633;1263;25402;-31
2022/11/21 11:24:26;;;;;;;14.50;12.00;;;;;;;;;;108516;1266;22492;-31
2022/11/21 11:27:05;;;;;;;14.70;12.40;;;;;;;;;;108748;1264;22649;-28
2022/11/21 11:29:52;;;;;;;13.60;12.10;;;;;;;;;;108617;1258;22558;-31
2022/11/21 11:32:25;;;;;;;13.80;11.70;;;;;;;;;;108852;1262;22794;-30
2022/11/21 11:35:06;;;;;;;13.50;12.10;;;;;;;;;;108751;1262;22586;-30
2022/11/21 11:37:42;;;;;;;13.70;12.00;;;;;;;;;;108857;1262;25472;-32
2022/11/21 11:40:28;;;;;;;15.00;12.20;;;;;;;;;;108711;1262;22544;-31
2022/11/21 11:50:09;;;;;;;13.40;11.50;;;;;;;;;;108465;1267;22555;-32
2022/11/21 11:52:36;;;;;;;14.00;11.50;;;;;;;;;;108535;1265;22580;-31
2022/11/21 11:55:18;;;;;;;12.80;11.10;;;;;;;;;;108696;1266;22599;-32
2022/11/21 11:57:53;;;;;;;13.70;11.80;;;;;;;;;;108666;1265;22502;-32
2022/11/21 12:00:33;;;;;;;13.20;11.60;;;;;;;;;;108549;1264;22527;-31
2022/11/21 12:03:16;;;;;;;13.30;11.10;;;;;;;;;;108557;1261;22522;-31
2022/11/21 12:06:01;;;;;;;12.40;10.90;;;;;;;;;;108588;1264;22555;-31
2022/11/21 12:08:51;;;;;;;13.20;11.50;;;;;;;;;;108548;1265;22611;-32
2022/11/21 12:18:00;;;;;;;13.80;11.90;;;;;;;;;;108615;1265;25406;-31
2022/11/21 12:20:42;;;;;;;13.30;11.30;;;;;;;;;;108512;1265;23847;-31
2022/11/21 12:23:16;;;;;;;12.30;10.80;;;;;;;;;;108515;1267;22606;-30
2022/11/21 12:26:06;;;;;;;13.10;11.40;;;;;;;;;;108435;1267;22612;-31
2022/11/21 12:28:59;;;;;;;12.80;10.60;;;;;;;;;;108455;1267;22550;-32
2022/11/21 12:31:50;;;;;;;12.10;10.50;;;;;;;;;;108440;1265;22570;-32
2022/11/21 12:34:45;;;;;;;12.70;10.30;;;;;;;;;;108551;1265;25962;-31
2022/11/21 12:37:31;;;;;;;12.60;10.70;;;;;;;;;;108536;1265;23045;-31
2022/11/21 12:40:25;;;;;;;12.10;10.50;;;;;;;;;;108566;1260;22596;-32
2022/11/21 12:43:12;;;;;;;13.10;11.20;;;;;;;;;;108398;1264;22550;-31
2022/11/21 12:45:52;;;;;;;12.40;10.50;;;;;;;;;;108396;1264;22564;-31
2022/11/21 12:55:15;;;;;;;13.40;11.10;;;;;;;;;;108504;1272;23463;-31
2022/11/21 12:58:11;;;;;;;13.50;11.20;;;;;;;;;;108562;1265;24173;-31
2022/11/21 13:00:58;;;;;;;13.20;10.80;;;;;;;;;;108482;1265;22554;-31
2022/11/21 13:03:45;;;;;;;11.90;10.20;;;;;;;;;;108487;1264;25302;-31
2022/11/21 13:06:21;;;;;;;13.20;11.50;;;;;;;;;;108512;1268;24293;-31
2022/11/21 13:08:56;;;;;;;12.20;10.50;;;;;;;;;;108546;1258;22506;-31
2022/11/21 13:11:58;;;;;;;12.00;10.50;;;;;;;;;;108476;1266;25873;-31
2022/11/21 13:14:46;;;;;;;12.30;10.10;;;;;;;;;;108515;1262;22562;-30
2022/11/21 13:17:29;;;;;;;12.50;11.20;;;;;;;;;;108463;1258;22603;-30
2022/11/21 13:20:18;;;;;;;12.30;10.60;;;;;;;;;;108464;1269;22606;-31
2022/11/21 13:23:05;;;;;;;12.50;11.00;;;;;;;;;;108475;1264;22555;-32
2022/11/21 13:25:48;;;;;;;12.10;10.50;;;;;;;;;;108597;1265;22558;-30
2022/11/21 13:28:47;;;;;;;13.10;10.60;;;;;;;;;;108516;1265;22630;-31
2022/11/21 13:31:36;;;;;;;11.80;10.00;;;;;;;;;;108440;1265;22623;-30
2022/11/21 13:34:39;;;;;;;12.60;10.50;;;;;;;;;;108434;1265;22527;-31
2022/11/21 13:38:02;;;;;;;13.10;10.70;;;;;;;;;;108416;1264;22605;-31
2022/11/21 13:42:56;;;;;;;11.40;10.10;;;;;;;;;;108420;1266;23774;-31
2022/11/21 13:43:36;;;;;;;12.70;10.30;;;;;;;;;;108450;1264;24199;-32
2022/11/21 13:46:11;;;;;;;12.40;10.70;;;;;;;;;;108670;1264;22512;-32
2022/11/21 13:49:09;;;;;;;12.20;10.40;;;;;;;;;;108735;1263;22540;-32
2022/11/21 13:51:54;;;;;;;11.80;10.10;;;;;;;;;;108655;1265;25276;-31
2022/11/21 13:55:03;;;;;;;12.40;10.30;;;;;;;;;;108631;1266;24593;-31
2022/11/21 13:58:02;;;;;;;12.50;10.20;;;;;;;;;;108632;1262;22591;-31
2022/11/21 14:01:02;;;;;;;12.20;10.30;;;;;;;;;;108554;1263;22513;-31
2022/11/21 14:04:05;;;;;;;11.80;9.60;;;;;;;;;;108633;1264;22512;-31
2022/11/21 14:06:42;;;;;;;12.30;10.60;;;;;;;;;;108641;1264;22572;-31
2022/11/21 14:09:27;;;;;;;13.30;10.60;;;;;;;;;;108684;1263;22546;-32
2022/11/21 14:12:03;;;;;;;12.30;10.40;;;;;;;;;;108749;1261;22586;-32
2022/11/21 14:14:43;;;;;;;11.80;10.30;;;;;;;;;;108641;1264;22521;-31
2022/11/21 14:17:37;;;;;;;12.50;10.00;;;;;;;;;;108575;1271;22523;-32
2022/11/21 14:20:21;;;;;;;12.70;10.70;;;;;;;;;;108622;1264;23179;-32
2022/11/21 14:23:05;;;;;;;12.20;10.20;;;;;;;;;;108644;1263;22647;-32
2022/11/21 14:25:53;;;;;;;12.90;9.80;;;;;;;;;;108624;1263;22511;-32
2022/11/21 14:28:28;;;;;;;13.30;10.50;;;;;;;;;;108738;1263;22612;-32
2022/11/21 14:31:02;;;;;;;12.70;10.30;;;;;;;;;;108671;1266;22524;-30
2022/11/21 14:33:36;;;;;;;13.50;10.70;;;;;;;;;;108647;1263;22776;-32
2022/11/21 14:36:15;;;;;;;12.90;10.50;;;;;;;;;;108729;1265;23305;-31
2022/11/21 14:38:50;;;;;;;12.50;10.20;;;;;;;;;;108625;1264;22565;-31
2022/11/21 14:41:33;;;;;;;13.00;10.80;;;;;;;;;;108575;1261;22549;-31
2022/11/21 14:44:15;;;;;;;;;;;;;;;;;;108677;1261;23081;-30
2022/11/21 14:46:48;;;;;;;12.50;10.50;;;;;;;;;;108613;1266;22519;-30
2022/11/21 14:49:28;;;;;;;12.70;10.40;;;;;;;;;;108383;1268;349483;-30
2022/11/21 14:52:18;;;;;;;12.10;10.80;;;;;;;;;;108798;1267;22508;-30
2022/11/21 14:54:54;;;;;;;13.50;10.80;;;;;;;;;;108757;1263;23930;-31
2022/11/21 14:57:29;;;;;;;12.80;10.50;;;;;;;;;;108674;1262;23916;-30
2022/11/21 15:00:02;;;;;;;12.70;10.40;;;;;;;;;;108769;1262;22498;-30
2022/11/21 15:02:35;;;;;;;13.20;10.90;;;;;;;;;;108761;1264;22581;-31
2022/11/21 15:05:14;;;;;;;;;;;;;;;;;;108662;1264;22514;-31
2022/11/21 15:07:47;;;;;;;15.30;10.50;;;;;;;;;;108676;1268;22600;-31
2022/11/21 15:10:24;;;;;;;13.20;11.00;;;;;;;;;;108708;1268;23902;-30
2022/11/21 15:13:01;;;;;;;12.20;10.10;;;;;;;;;;108779;1262;22498;-32
2022/11/21 15:15:35;;;;;;;11.80;9.80;;;;;;;;;;108774;1262;22679;-31
2022/11/21 15:18:15;;;;;;;12.90;10.80;;;;;;;;;;108759;1262;22592;-32
2022/11/21 15:20:52;;;;;;;12.80;10.30;;;;;;;;;;108702;1265;22573;-32
2022/11/21 15:23:34;;;;;;;12.30;10.40;;;;;;;;;;108755;1263;22560;-31
2022/11/21 15:26:21;;;;;;;12.60;10.90;;;;;;;;;;108646;1261;22547;-33
2022/11/21 15:29:00;;;;;;;13.40;10.90;;;;;;;;;;108708;1263;22645;-33
2022/11/21 15:31:32;;;;;;;12.20;10.20;;;;;;;;;;108791;1269;25427;-32
2022/11/21 15:34:06;;;;;;;14.10;11.60;;;;;;;;;;108776;1269;22593;-33
2022/11/21 15:36:39;;;;;;;13.70;11.10;;;;;;;;;;108677;1264;22557;-33
2022/11/21 15:39:23;;;;;;;14.20;10.80;;;;;;;;;;108723;1261;22510;-33
2022/11/21 15:41:55;;;;;;;12.80;10.60;;;;;;;;;;108684;1268;25968;-33
2022/11/21 15:44:27;;;;;;;13.20;10.90;;;;;;;;;;108702;1263;22599;-33
2022/11/21 15:46:59;;;;;;;14.50;11.10;;;;;;;;;;108685;1263;22561;-33
2022/11/21 15:49:32;;;;;;;14.00;11.80;;;;;;;;;;108773;1269;22572;-33
2022/11/21 15:52:11;;;;;;;13.40;11.30;;;;;;;;;;108720;1262;22541;-33
2022/11/21 15:54:43;;;;;;;15.20;11.60;;;;;;;;;;108746;1264;25269;-33
2022/11/21 15:57:17;;;;;;;14.40;11.40;;;;;;;;;;108747;1266;22540;-33
2022/11/21 15:59:49;;;;;;;14.50;11.70;;;;;;;;;;108719;1268;22609;-33
2022/11/21 16:02:21;;;;;;;14.70;11.80;;;;;;;;;;108702;1268;22969;-33
2022/11/21 16:04:54;;;;;;;15.10;12.20;;;;;;;;;;108744;1265;22980;-32
2022/11/21 16:07:26;;;;;;;15.90;12.70;;;;;;;;;;108695;1264;22547;-33
2022/11/21 16:09:58;;;;;;;15.50;12.30;;;;;;;;;;108720;1262;22509;-33
2022/11/21 16:12:30;;;;;;;14.40;12.30;;;;;;;;;;108775;1267;22570;-33
2022/11/21 16:15:02;;;;;;;15.00;12.20;;;;;;;;;;108717;1269;22566;-33
2022/11/21 16:17:35;;;;;;;14.10;12.30;;;;;;;;;;108742;1263;22516;-33
2022/11/21 16:20:09;;;;;;;14.40;12.00;;;;;;;;;;108703;1268;22555;-33
2022/11/21 16:22:41;;;;;;;14.40;12.40;;;;;;;;;;108767;1263;23266;-33
2022/11/21 16:25:16;;;;;;;14.10;11.80;;;;;;;;;;108731;1262;22554;-33
2022/11/21 16:27:48;;;;;;;15.00;12.40;;;;;;;;;;108744;1268;22888;-33
2022/11/21 16:30:20;;;;;;;15.80;12.70;;;;;;;;;;108751;1263;22494;-32
2022/11/21 16:32:55;;;;;;;15.10;12.80;;;;;;;;;;108765;1262;24066;-32
2022/11/21 16:35:27;;;;;;;14.90;12.40;;;;;;;;;;108781;1264;22615;-33
2022/11/21 16:37:59;;;;;;;15.30;13.10;;;;;;;;;;108721;1269;22720;-32
2022/11/21 16:40:31;;;;;;;14.50;12.60;;;;;;;;;;108737;1261;22521;-30
2022/11/21 16:43:12;;;;;;;15.80;13.30;;;;;;;;;;108661;1270;22555;-31
2022/11/21 16:45:44;;;;;;;16.10;13.30;;;;;;;;;;108748;1263;22677;-30
2022/11/21 16:48:18;;;;;;;16.00;12.30;;;;;;;;;;108859;1263;25212;-30
2022/11/21 16:50:51;;;;;;;15.80;13.00;;;;;;;;;;108860;1268;22549;-30
2022/11/21 16:53:25;;;;;;;17.10;13.70;;;;;;;;;;108926;1262;22516;-30
2022/11/21 16:56:07;;;;;;;15.60;13.30;;;;;;;;;;108862;1266;22584;-29
2022/11/21 16:58:41;;;;;;;15.70;12.80;;;;;;;;;;108800;1266;22585;-30
2022/11/21 17:01:17;;;;;;;15.40;13.10;;;;;;;;;;108775;1264;25399;-29
2022/11/21 17:03:50;;;;;;;15.80;13.20;;;;;;;;;;108814;1256;22579;-30
2022/11/21 17:06:28;;;;;;;15.60;12.90;;;;;;;;;;108761;1262;22543;-30
2022/11/21 17:09:02;;;;;;;15.90;13.00;;;;;;;;;;108759;1263;22560;-30
2022/11/21 17:11:35;;;;;;;14.70;12.90;;;;;;;;;;108844;1264;22557;-30
2022/11/21 17:14:07;;;;;;;;;;;;;;;;;;108825;1263;22785;-30
2022/11/21 17:16:40;;;;;;;16.00;12.90;;;;;;;;;;108796;1267;22566;-29
2022/11/21 17:19:15;;;;;;;;;;;;;;;;;;108742;1266;22541;-30
2022/11/21 17:21:47;;;;;;;15.60;12.50;;;;;;;;;;108790;1261;25936;-30
2022/11/21 17:24:19;;;;;;;15.70;12.90;;;;;;;;;;108848;1261;22561;-29
2022/11/21 17:26:51;;;;;;;16.60;13.30;;;;;;;;;;108775;1266;22632;-30
2022/11/21 17:29:23;;;;;;;15.70;12.60;;;;;;;;;;108799;1265;22501;-30
2022/11/21 17:31:55;;;;;;;15.10;12.70;;;;;;;;;;108698;1269;22554;-30
2022/11/21 17:34:27;;;;;;;15.70;13.40;;;;;;;;;;108774;1269;24221;-29
2022/11/21 17:37:00;;;;;;;15.70;12.80;;;;;;;;;;108757;1267;23343;-30
2022/11/21 17:39:32;;;;;;;15.70;12.80;;;;;;;;;;108676;1262;22579;-29
2022/11/21 17:42:07;;;;;;;16.30;12.90;;;;;;;;;;108659;1266;22546;-30
2022/11/21 17:44:39;;;;;;;15.70;13.30;;;;;;;;;;108474;1270;22569;-32
2022/11/21 17:47:11;;;;;;;15.50;12.60;;;;;;;;;;108562;1264;25532;-33
2022/11/21 17:49:43;;;;;;;15.10;13.00;;;;;;;;;;108578;1269;22529;-33
2022/11/21 17:52:15;;;;;;;16.30;12.70;;;;;;;;;;108656;1265;22576;-32
2022/11/21 17:54:48;;;;;;;16.40;12.20;;;;;;;;;;108627;1268;23166;-33
2022/11/21 17:57:20;;;;;;;15.10;12.50;;;;;;;;;;108676;1264;25407;-32
2022/11/21 17:59:52;;;;;;;15.10;12.80;;;;;;;;;;108567;1256;22519;-32
2022/11/21 18:02:27;;;;;;;15.70;12.30;;;;;;;;;;108563;1262;22536;-31
2022/11/21 18:04:59;;;;;;;14.90;13.20;;;;;;;;;;108572;1269;22525;-31
2022/11/21 18:07:32;;;;;;;15.70;12.60;;;;;;;;;;108532;1261;22634;-30
2022/11/21 18:10:05;;;;;;;15.90;13.00;;;;;;;;;;108535;1267;22548;-32
2022/11/21 18:12:37;;;;;;;16.00;12.90;;;;;;;;;;108688;1267;22731;-32
2022/11/21 18:15:11;;;;;;;16.10;12.60;;;;;;;;;;108752;1256;22565;-32
2022/11/21 18:17:43;;;;;;;15.30;12.20;;;;;;;;;;108629;1268;22565;-31
2022/11/21 18:20:17;;;;;;;15.00;12.40;;;;;;;;;;108632;1263;22496;-31
2022/11/21 18:22:49;;;;;;;16.70;13.50;;;;;;;;;;108557;1265;22527;-30
2022/11/21 18:25:21;;;;;;;16.10;13.40;;;;;;;;;;108615;1264;22613;-32
2022/11/21 18:27:53;;;;;;;14.90;12.60;;;;;;;;;;108574;1267;22578;-31
2022/11/21 18:30:25;;;;;;;15.80;13.00;;;;;;;;;;108577;1270;25995;-31
2022/11/21 18:32:57;;;;;;;14.90;12.00;;;;;;;;;;108669;1256;22695;-31
2022/11/21 18:35:30;;;;;;;16.10;13.40;;;;;;;;;;108647;1262;22515;-30
2022/11/21 18:38:02;;;;;;;16.90;14.30;;;;;;;;;;108562;1266;25399;-30
2022/11/21 18:40:34;;;;;;;17.10;13.90;;;;;;;;;;108625;1266;22499;-30
2022/11/21 18:43:09;;;;;;;15.40;13.10;;;;;;;;;;108582;1266;22609;-30
2022/11/21 18:45:40;;;;;;;;;;;;;;;;;;108596;1264;22720;-31
2022/11/21 18:48:14;;;;;;;16.40;13.40;;;;;;;;;;108595;1265;22589;-31
2022/11/21 18:50:46;;;;;;;15.80;13.40;;;;;;;;;;108610;1267;22564;-31
2022/11/21 18:53:18;;;;;;;16.90;13.90;;;;;;;;;;108796;1268;23106;-31
2022/11/21 18:55:50;;;;;;;14.80;13.20;;;;;;;;;;108712;1264;22556;-32
2022/11/21 18:58:22;;;;;;;16.00;13.10;;;;;;;;;;108692;1264;23038;-30
2022/11/21 19:01:00;;;;;;;15.90;13.20;;;;;;;;;;108731;1263;22573;-28
2022/11/21 19:03:33;;;;;;;15.30;13.30;;;;;;;;;;108708;1268;22523;-30
2022/11/21 19:06:07;;;;;;;15.10;12.80;;;;;;;;;;108761;1263;22556;-29
2022/11/21 19:08:39;;;;;;;16.80;13.20;;;;;;;;;;108626;1264;22613;-28
2022/11/21 19:11:14;;;;;;;15.80;13.70;;;;;;;;;;108702;1265;22544;-29
2022/11/21 19:13:47;;;;;;;16.50;13.40;;;;;;;;;;108736;1269;22681;-34
2022/11/21 19:16:24;;;;;;;15.80;13.30;;;;;;;;;;108576;1266;22564;-34
2022/11/21 19:18:56;;;;;;;15.60;13.70;;;;;;;;;;108991;1263;22578;-31
2022/11/21 19:21:28;;;;;;;16.00;13.30;;;;;;;;;;108832;1263;22707;-31
2022/11/21 19:24:01;;;;;;;15.70;13.60;;;;;;;;;;108742;1265;25392;-31
2022/11/21 19:26:33;;;;;;;15.40;13.50;;;;;;;;;;108828;1265;22572;-32
2022/11/21 19:29:06;;;;;;;14.90;13.10;;;;;;;;;;108853;1263;24166;-31
2022/11/21 19:31:38;;;;;;;15.90;14.00;;;;;;;;;;109078;1265;23237;-32
2022/11/21 19:34:10;;;;;;;16.30;13.70;;;;;;;;;;109033;1263;22574;-31
2022/11/21 19:36:42;;;;;;;17.10;14.10;;;;;;;;;;108874;1264;22524;-31
2022/11/21 19:39:16;;;;;;;15.50;12.50;;;;;;;;;;108838;1269;22508;-34
2022/11/21 19:41:50;;;;;;;16.60;13.60;;;;;;;;;;108887;1260;22589;-34
2022/11/21 19:44:22;;;;;;;16.10;13.40;;;;;;;;;;108731;1263;23712;-34
2022/11/21 19:46:54;;;;;;;17.00;13.50;;;;;;;;;;108754;1261;22600;-34
2022/11/21 19:49:26;;;;;;;15.20;13.00;;;;;;;;;;108754;1264;23878;-34
2022/11/21 19:51:58;;;;;;;15.00;13.40;;;;;;;;;;108711;1263;22640;-34
2022/11/21 19:54:30;;;;;;;15.90;13.70;;;;;;;;;;108727;1262;24020;-34
2022/11/21 19:57:03;;;;;;;16.50;13.60;;;;;;;;;;108693;1262;22493;-34
2022/11/21 19:59:37;;;;;;;15.60;13.60;;;;;;;;;;108740;1263;22567;-34
2022/11/21 20:02:16;;;;;;;16.70;14.00;;;;;;;;;;108720;1262;24411;-33
2022/11/21 20:04:48;;;;;;;17.00;13.80;;;;;;;;;;108750;1261;25241;-34
2022/11/21 20:07:21;;;;;;;16.10;13.00;;;;;;;;;;108759;1265;24208;-34
2022/11/21 20:09:53;;;;;;;15.90;13.40;;;;;;;;;;108745;1265;23768;-34
2022/11/21 20:12:24;;;;;;;16.10;13.40;;;;;;;;;;108695;1256;23132;-34
2022/11/21 20:14:56;;;;;;;16.40;14.60;;;;;;;;;;108755;1262;22549;-34
2022/11/21 20:17:28;;;;;;;15.00;12.80;;;;;;;;;;108761;1262;22534;-34
2022/11/21 20:20:00;;;;;;;16.30;14.10;;;;;;;;;;108765;1262;22778;-34
2022/11/21 20:22:33;;;;;;;15.60;13.20;;;;;;;;;;108754;1262;23964;-34
2022/11/21 20:25:06;;;;;;;16.20;13.70;;;;;;;;;;108717;1266;22544;-34
2022/11/21 20:27:39;;;;;;;16.20;13.30;;;;;;;;;;108754;1261;22929;-34
2022/11/21 20:30:13;;;;;;;16.40;13.90;;;;;;;;;;108706;1256;22554;-33
2022/11/21 20:32:45;;;;;;;15.50;13.70;;;;;;;;;;108709;1264;22567;-34
2022/11/21 20:35:17;;;;;;;16.90;14.10;;;;;;;;;;108670;1263;22556;-34
2022/11/21 20:37:50;;;;;;;16.60;14.70;;;;;;;;;;108753;1262;22552;-31
2022/11/21 20:40:22;;;;;;;16.30;13.80;;;;;;;;;;108816;1256;22690;-31
2022/11/21 20:42:56;;;;;;;15.90;13.80;;;;;;;;;;108779;1263;22512;-31
2022/11/21 20:45:28;;;;;;;15.70;13.70;;;;;;;;;;108819;1265;25262;-31
2022/11/21 20:48:00;;;;;;;16.30;13.70;;;;;;;;;;108833;1256;22553;-31
2022/11/21 20:50:31;;;;;;;15.80;13.70;;;;;;;;;;108819;1262;22665;-31
2022/11/21 20:53:03;;;;;;;16.50;14.20;;;;;;;;;;108796;1263;22487;-31
2022/11/21 20:55:35;;;;;;;16.70;14.30;;;;;;;;;;108868;1262;23523;-31
2022/11/21 20:58:07;;;;;;;16.00;13.90;;;;;;;;;;108834;1262;22545;-31
2022/11/21 21:00:40;;;;;;;15.30;13.40;;;;;;;;;;108864;1262;22598;-31
2022/11/21 21:03:14;;;;;;;16.70;14.90;;;;;;;;;;108787;1262;22482;-31
2022/11/21 21:05:46;;;;;;;17.60;15.50;;;;;;;;;;108867;1265;23995;-31
2022/11/21 21:08:18;;;;;;;16.40;14.60;;;;;;;;;;108824;1263;22560;-31
2022/11/21 21:10:50;;;;;;;17.60;14.90;;;;;;;;;;108818;1262;22569;-31
2022/11/21 21:13:22;;;;;;;17.10;14.70;;;;;;;;;;108745;1264;23074;-31
2022/11/21 21:15:55;;;;;;;15.80;14.10;;;;;;;;;;108968;1263;22559;-29
2022/11/21 21:18:27;;;;;;;17.50;15.60;;;;;;;;;;108954;1256;22721;-29
2022/11/21 21:21:09;;;;;;;16.50;14.40;;;;;;;;;;108901;1262;22506;-29
2022/11/21 21:23:44;;;;;;;18.40;15.20;;;;;;;;;;108771;1262;22551;-29
2022/11/21 21:26:19;;;;;;;17.10;15.20;;;;;;;;;;108775;1264;22560;-29
2022/11/21 21:28:54;;;;;;;16.30;14.60;;;;;;;;;;108693;1264;22565;-28
2022/11/21 21:31:27;;;;;;;16.00;14.30;;;;;;;;;;108730;1264;23836;-29
2022/11/21 21:33:59;;;;;;;;;;;;;;;;;;108674;1265;22525;-29
2022/11/21 21:36:31;;;;;;;18.10;14.20;;;;;;;;;;108811;1264;22607;-29
2022/11/21 21:39:04;;;;;;;18.60;14.40;;;;;;;;;;108816;1263;22513;-29
2022/11/21 21:41:38;;;;;;;;;;;;;;;;;;108816;1265;22545;-28
2022/11/21 21:44:10;;;;;;;16.70;14.80;;;;;;;;;;108777;1261;23778;-28
2022/11/21 21:46:42;;;;;;;17.10;14.40;;;;;;;;;;108730;1263;22637;-29
2022/11/21 21:49:15;;;;;;;19.40;15.20;;;;;;;;;;108689;1263;22679;-28
2022/11/21 21:51:47;;;;;;;19.30;14.90;;;;;;;;;;108730;1264;22489;-28
2022/11/21 21:54:22;;;;;;;16.10;14.30;;;;;;;;;;108664;1264;22580;-29
2022/11/21 21:56:54;;;;;;;17.60;14.80;;;;;;;;;;108675;1268;24188;-31
2022/11/21 21:59:26;;;;;;;17.70;14.20;;;;;;;;;;108682;1264;23827;-29
2022/11/21 22:01:58;;;;;;;16.60;14.30;;;;;;;;;;108728;1265;23733;-29
2022/11/21 22:04:32;;;;;;;17.40;15.00;;;;;;;;;;108707;1263;22624;-29
2022/11/21 22:07:08;;;;;;;17.10;14.30;;;;;;;;;;108869;1265;23853;-29
2022/11/21 22:09:40;;;;;;;17.00;14.80;;;;;;;;;;108843;1262;23762;-29
2022/11/21 22:12:12;;;;;;;17.10;14.30;;;;;;;;;;108823;1263;22545;-29
2022/11/21 22:14:44;;;;;;;17.10;14.80;;;;;;;;;;108742;1265;22590;-29
2022/11/21 22:17:16;;;;;;;17.80;14.70;;;;;;;;;;108679;1259;25249;-29